Ashton, Illinois
Current Conditions -  °F | °C
As of 9:15 PM on Monday 20 Oct 2014 (Local Time) from KRPJ Reporting Station
Scattered Clouds Scattered Clouds  
Wind Chill:   Ceiling: Unl
Heat Index:   Visibility: 10mi
Dew Point:   Wind: 3mph
Humidity: 77%   Direction: 40°NE
Pressure: 30.01"   Gusts: NA
Location:  41.87°N, 89.22°W
Report Text: KRPJ 210215Z AUTO 04003KT 10SM SCT055 08/05 A3001 RMK AO2 T00830045
Loading
Personal Weather Stations






























Interactive Weather Map
Tropical Storm Tracking
New forecast layout! Learn more

10-Day Weather Forecast

Advertisements
Track Severe Weather on mobile